Marco Polo — C6JZ7 — position and weather

sailwx.info

Track history (hours):
 
Tides and Currents Weather Stations Pressure Air Temp Water Temp Dewpoint Dewpoint Depression Visibility Wind Speed Wind Dir Waves Ship Positions

Marco Polo

Operator: Orient Lines

Last reported at 2014-Sep-12 23:33 UTC. Time now 2014-Sep-17 01:37 UTC.
Position N 59°11' E 005°21'.

Type: Passenger vessel. MMSI: 308693000.

Date/timePositionNaut miles runAvg speedWind from/ knotsBaromVisibWave heightAir tempDewpointWater temp
2014-Sep-12 23:33N 59°11' E 005°21'1312.9
2014-Sep-12 22:33N 58°58' E 005°19'1413.4
2014-Sep-12 21:32N 58°45' E 005°14'38516.7
2014-Sep-11 22:33N 52°33' E 002°20'1615.1
2014-Sep-11 21:29N 52°18' E 002°11'1415.4
2014-Sep-11 20:33N 52°06' E 001°59'1515.5
2014-Sep-11 19:34N 51°52' E 001°48'10 9.5
2014-Sep-11 18:33N 51°49' E 001°34'1515.1
2014-Sep-11 17:33N 51°37' E 001°19'1818.4
2014-Sep-11 16:33N 51°29' E 000°52'1515.1
2014-Sep-11 15:33N 51°29' E 000°27'4 3.9
2014-Sep-11 14:34N 51°27' E 000°22'0 0.0
2014-Sep-11 13:34N 51°27' E 000°22'0 0.0
2014-Sep-11 12:34N 51°27' E 000°22'0 0.0
2014-Sep-11 11:34N 51°27' E 000°22'0 0.0
2014-Sep-11 10:33N 51°27' E 000°22'0 0.0
2014-Sep-11 09:34N 51°27' E 000°22'0 0.0
2014-Sep-11 08:34N 51°27' E 000°22'0 0.0
2014-Sep-11 07:33N 51°27' E 000°22'0 0.0
2014-Sep-11 06:33N 51°27' E 000°22'0 0.4
2014-Sep-11 05:34N 51°27' E 000°23'10 9.7
2014-Sep-11 04:31N 51°30' E 000°38'1313.3
2014-Sep-11 03:33N 51°29' E 000°58'1312.8
2014-Sep-11 02:33N 51°29' E 001°19'1211.8
2014-Sep-11 01:33N 51°23' E 001°35'1414.3
2014-Sep-11 00:34N 51°09' E 001°42'5413.5
2014-Sep-10 20:33N 50°27' E 000°48'6510.8
2014-Sep-10 14:33N 49°33' W 000°07'1212.2
2014-Sep-10 13:34N 49°26' E 000°09'4 3.6
2014-Sep-10 12:31N 49°26' E 000°14'0 0.0
2014-Sep-10 11:33N 49°26' E 000°14'0 0.0
2014-Sep-10 10:33N 49°26' E 000°14'0 0.0
2014-Sep-10 09:26N 49°26' E 000°14'0 0.0
2014-Sep-10 08:34N 49°26' E 000°14'0 0.0
2014-Sep-10 07:33N 49°26' E 000°14'0 0.0
2014-Sep-10 06:31N 49°26' E 000°14'0 0.0
2014-Sep-10 05:33N 49°26' E 000°14'0 0.0
2014-Sep-10 04:32N 49°26' E 000°14'0 0.0
2014-Sep-10 03:32N 49°26' E 000°14'0 0.0
2014-Sep-10 02:33N 49°26' E 000°14'5 4.7
2014-Sep-10 01:34N 49°26' E 000°07'1212.0
2014-Sep-10 00:33N 49°30' W 000°10'8912.3
2014-Sep-09 17:19N 49°25' W 002°28'  
2014-Sep-07 01:32N 54°22' W 005°20'1716.9
2014-Sep-07 00:34N 54°38' W 005°21'1616.1
2014-Sep-06 23:33N 54°53' W 005°32'2115.4
2014-Sep-06 22:13N 55°10' W 005°54'1015.3
2014-Sep-06 21:33N 55°18' W 006°04'1615.7
2014-Sep-06 20:33N 55°29' W 006°24'1716.8
2014-Sep-06 19:33N 55°44' W 006°38'148 4.2
2014-Sep-05 08:29N 58°12' W 006°22'0 0.0
2014-Sep-05 06:04N 58°12' W 006°22'0 0.7
2014-Sep-05 05:33N 58°11' W 006°22'10 9.8
2014-Sep-05 04:33N 58°13' W 006°04'1514.5
2014-Sep-05 03:33N 58°23' W 005°42'5215.1
2014-Sep-05 00:04N 58°42' W 004°09'916.5
2014-Sep-04 23:33N 58°42' W 003°52'2218.1
2014-Sep-04 22:19N 58°44' W 003°09'7010.0
2014-Sep-04 15:20N 57°41' W 004°08'67 4.5
2014-Sep-04 00:34N 57°46' W 002°03'1413.7
2014-Sep-03 23:33N 57°39' W 001°41'1414.5
2014-Sep-03 22:33N 57°25' W 001°33'5914.6
2014-Sep-03 18:32N 56°29' W 001°01'6715.3
2014-Sep-03 14:08N 55°25' W 000°25'1015.7
2014-Sep-03 13:31N 55°16' W 000°20'2215.4
2014-Sep-03 12:06N 54°55' W 000°09'815.1
2014-Sep-03 11:33N 54°47' W 000°04'1514.9
2014-Sep-03 10:33N 54°33' E 000°04'1514.6
2014-Sep-03 09:33N 54°19' E 000°11'1414.3
2014-Sep-03 08:33N 54°05' E 000°18'1514.4
2014-Sep-03 07:32N 53°53' E 000°33'4815.1
2014-Sep-03 04:22N 53°14' E 001°18'1215.2
2014-Sep-03 03:33N 53°05' E 001°33'1615.5
2014-Sep-03 02:33N 52°57' E 001°55'1614.3
2014-Sep-03 01:27N 52°45' E 002°13'1314.4
2014-Sep-03 00:33N 52°33' E 002°07'1414.4
2014-Sep-02 23:33N 52°20' E 001°58'  
Track history (hours):
 
Tides and Currents Weather Stations Pressure Air Temp Water Temp Dewpoint Dewpoint Depression Visibility Wind Speed Wind Dir Waves Ship Positions

Marco Polo

Operator: Orient Lines

Last reported at 2014-Sep-12 23:33 UTC. Time now 2014-Sep-17 01:37 UTC.
Position N 59°11' E 005°21'.

Type: Passenger vessel. MMSI: 308693000.

Date/timePositionNaut miles runAvg speedWind from/ knotsBaromVisibWave heightAir tempDewpointWater temp
2014-Sep-12 23:33N 59°11' E 005°21'1312.9
2014-Sep-12 22:33N 58°58' E 005°19'1413.4
2014-Sep-12 21:32N 58°45' E 005°14'38516.7
2014-Sep-11 22:33N 52°33' E 002°20'1615.1
2014-Sep-11 21:29N 52°18' E 002°11'1415.4
2014-Sep-11 20:33N 52°06' E 001°59'1515.5
2014-Sep-11 19:34N 51°52' E 001°48'10 9.5
2014-Sep-11 18:33N 51°49' E 001°34'1515.1
2014-Sep-11 17:33N 51°37' E 001°19'1818.4
2014-Sep-11 16:33N 51°29' E 000°52'1515.1
2014-Sep-11 15:33N 51°29' E 000°27'4 3.9
2014-Sep-11 14:34N 51°27' E 000°22'0 0.0
2014-Sep-11 13:34N 51°27' E 000°22'0 0.0
2014-Sep-11 12:34N 51°27' E 000°22'0 0.0
2014-Sep-11 11:34N 51°27' E 000°22'0 0.0
2014-Sep-11 10:33N 51°27' E 000°22'0 0.0
2014-Sep-11 09:34N 51°27' E 000°22'0 0.0
2014-Sep-11 08:34N 51°27' E 000°22'0 0.0
2014-Sep-11 07:33N 51°27' E 000°22'0 0.0
2014-Sep-11 06:33N 51°27' E 000°22'0 0.4
2014-Sep-11 05:34N 51°27' E 000°23'10 9.7
2014-Sep-11 04:31N 51°30' E 000°38'1313.3
2014-Sep-11 03:33N 51°29' E 000°58'1312.8
2014-Sep-11 02:33N 51°29' E 001°19'1211.8
2014-Sep-11 01:33N 51°23' E 001°35'1414.3
2014-Sep-11 00:34N 51°09' E 001°42'5413.5
2014-Sep-10 20:33N 50°27' E 000°48'6510.8
2014-Sep-10 14:33N 49°33' W 000°07'1212.2
2014-Sep-10 13:34N 49°26' E 000°09'4 3.6
2014-Sep-10 12:31N 49°26' E 000°14'0 0.0
2014-Sep-10 11:33N 49°26' E 000°14'0 0.0
2014-Sep-10 10:33N 49°26' E 000°14'0 0.0
2014-Sep-10 09:26N 49°26' E 000°14'0 0.0
2014-Sep-10 08:34N 49°26' E 000°14'0 0.0
2014-Sep-10 07:33N 49°26' E 000°14'0 0.0
2014-Sep-10 06:31N 49°26' E 000°14'0 0.0
2014-Sep-10 05:33N 49°26' E 000°14'0 0.0
2014-Sep-10 04:32N 49°26' E 000°14'0 0.0
2014-Sep-10 03:32N 49°26' E 000°14'0 0.0
2014-Sep-10 02:33N 49°26' E 000°14'5 4.7
2014-Sep-10 01:34N 49°26' E 000°07'1212.0
2014-Sep-10 00:33N 49°30' W 000°10'8912.3
2014-Sep-09 17:19N 49°25' W 002°28'  
2014-Sep-07 01:32N 54°22' W 005°20'1716.9
2014-Sep-07 00:34N 54°38' W 005°21'1616.1
2014-Sep-06 23:33N 54°53' W 005°32'2115.4
2014-Sep-06 22:13N 55°10' W 005°54'1015.3
2014-Sep-06 21:33N 55°18' W 006°04'1615.7
2014-Sep-06 20:33N 55°29' W 006°24'1716.8
2014-Sep-06 19:33N 55°44' W 006°38'148 4.2
2014-Sep-05 08:29N 58°12' W 006°22'0 0.0
2014-Sep-05 06:04N 58°12' W 006°22'0 0.7
2014-Sep-05 05:33N 58°11' W 006°22'10 9.8
2014-Sep-05 04:33N 58°13' W 006°04'1514.5
2014-Sep-05 03:33N 58°23' W 005°42'5215.1
2014-Sep-05 00:04N 58°42' W 004°09'916.5
2014-Sep-04 23:33N 58°42' W 003°52'2218.1
2014-Sep-04 22:19N 58°44' W 003°09'7010.0
2014-Sep-04 15:20N 57°41' W 004°08'67 4.5
2014-Sep-04 00:34N 57°46' W 002°03'1413.7
2014-Sep-03 23:33N 57°39' W 001°41'1414.5
2014-Sep-03 22:33N 57°25' W 001°33'5914.6
2014-Sep-03 18:32N 56°29' W 001°01'6715.3
2014-Sep-03 14:08N 55°25' W 000°25'1015.7
2014-Sep-03 13:31N 55°16' W 000°20'2215.4
2014-Sep-03 12:06N 54°55' W 000°09'815.1
2014-Sep-03 11:33N 54°47' W 000°04'1514.9
2014-Sep-03 10:33N 54°33' E 000°04'1514.6
2014-Sep-03 09:33N 54°19' E 000°11'1414.3
2014-Sep-03 08:33N 54°05' E 000°18'1514.4
2014-Sep-03 07:32N 53°53' E 000°33'4815.1
2014-Sep-03 04:22N 53°14' E 001°18'1215.2
2014-Sep-03 03:33N 53°05' E 001°33'1615.5
2014-Sep-03 02:33N 52°57' E 001°55'1614.3
2014-Sep-03 01:27N 52°45' E 002°13'1314.4
2014-Sep-03 00:33N 52°33' E 002°07'1414.4
2014-Sep-02 23:33N 52°20' E 001°58'  

Dump ship's entire track history